Time;durP1;ratioP1;P1;durP2;ratioP2;P2;SDS_P1;SDS_P2;PMS_P1;PMS_P2;Temp;Humidity;BMP_temperature;BMP_pressure;BME280_temperature;BME280_humidity;BME280_pressure;Samples;Min_cycle;Max_cycle;Signal;HPM_P1;HPM_P2
2023/12/27 00:00:04;;;;;;;3.37;1.83;;;11.60;99.90;;;;;;5053964;28;20670;-63
2023/12/27 00:02:31;;;;;;;4.50;2.10;;;11.60;99.90;;;;;;5053984;28;20198;-65
2023/12/27 00:04:59;;;;;;;4.63;2.17;;;11.60;99.90;;;;;;5053513;28;20312;-63
2023/12/27 00:07:26;;;;;;;2.87;1.90;;;11.60;99.90;;;;;;5053605;28;20212;-63
2023/12/27 00:09:52;;;;;;;4.33;2.10;;;11.60;99.90;;;;;;5053766;28;20296;-65
2023/12/27 00:12:19;;;;;;;7.13;2.53;;;11.60;99.90;;;;;;5053495;28;20209;-63
2023/12/27 00:14:46;;;;;;;4.43;1.60;;;11.60;99.90;;;;;;5053242;28;20205;-63
2023/12/27 00:17:13;;;;;;;6.20;2.33;;;11.70;99.90;;;;;;5053341;28;20201;-64
2023/12/27 00:19:39;;;;;;;5.17;2.30;;;11.70;99.90;;;;;;5053266;28;20590;-64
2023/12/27 00:22:07;;;;;;;5.73;2.47;;;11.60;99.90;;;;;;5036960;28;20206;-62
2023/12/27 00:24:34;;;;;;;4.83;2.47;;;11.60;99.90;;;;;;5053131;28;20209;-62
2023/12/27 00:27:01;;;;;;;5.67;2.40;;;11.60;99.90;;;;;;5053022;28;20216;-63
2023/12/27 00:29:28;;;;;;;3.90;1.87;;;11.70;99.90;;;;;;5053144;28;20233;-62
2023/12/27 00:31:54;;;;;;;6.23;2.20;;;11.70;99.90;;;;;;5052932;28;20205;-61
2023/12/27 00:34:21;;;;;;;4.67;2.23;;;11.80;99.90;;;;;;5052720;28;20213;-63
2023/12/27 00:36:48;;;;;;;3.53;1.93;;;11.70;99.90;;;;;;5053126;28;20221;-62
2023/12/27 00:39:17;;;;;;;3.80;2.27;;;11.70;99.90;;;;;;5053168;28;20225;-61
2023/12/27 00:41:44;;;;;;;3.53;1.90;;;11.50;99.90;;;;;;5052381;28;20209;-62
2023/12/27 00:44:10;;;;;;;2.47;1.77;;;11.20;99.90;;;;;;5053142;28;20208;-62
2023/12/27 00:46:38;;;;;;;3.87;1.87;;;11.00;99.90;;;;;;5053222;28;20528;-63
2023/12/27 00:49:05;;;;;;;3.00;2.00;;;10.70;99.90;;;;;;5052462;28;20225;-61
2023/12/27 00:51:32;;;;;;;4.60;1.80;;;10.50;99.90;;;;;;5052821;28;20256;-62
2023/12/27 00:53:59;;;;;;;4.00;2.23;;;10.70;99.90;;;;;;5052435;28;20209;-62
2023/12/27 00:56:27;;;;;;;3.67;1.90;;;10.80;99.90;;;;;;5052620;28;20201;-64
2023/12/27 00:58:53;;;;;;;3.13;2.00;;;11.00;99.90;;;;;;5052394;28;20230;-64
2023/12/27 01:01:20;;;;;;;4.60;2.03;;;11.10;99.90;;;;;;5051789;28;20201;-63
2023/12/27 01:03:47;;;;;;;6.57;2.27;;;11.20;99.90;;;;;;5051930;28;20213;-62
2023/12/27 01:06:14;;;;;;;3.23;2.53;;;11.20;99.90;;;;;;5052187;28;20316;-63
2023/12/27 01:08:40;;;;;;;3.20;1.70;;;11.20;99.90;;;;;;5052194;28;20233;-62
2023/12/27 01:11:08;;;;;;;5.50;2.40;;;11.10;99.90;;;;;;5052417;28;20209;-63
2023/12/27 01:13:36;;;;;;;4.87;3.30;;;11.20;99.90;;;;;;5052290;28;20247;-62
2023/12/27 01:16:03;;;;;;;3.83;2.70;;;11.20;99.90;;;;;;5052336;28;20213;-63
2023/12/27 01:18:30;;;;;;;7.03;4.90;;;11.30;99.90;;;;;;5052129;28;20236;-62
2023/12/27 01:20:57;;;;;;;5.93;2.57;;;11.30;99.90;;;;;;5051922;28;20212;-64
2023/12/27 01:23:24;;;;;;;5.93;4.13;;;11.30;99.90;;;;;;5052002;28;20210;-62
2023/12/27 01:25:50;;;;;;;5.83;4.13;;;11.40;99.90;;;;;;5051757;28;20268;-63
2023/12/27 01:28:17;;;;;;;7.10;3.13;;;11.30;99.90;;;;;;5052002;28;20225;-62
2023/12/27 01:30:45;;;;;;;4.40;3.00;;;11.30;99.90;;;;;;5051733;28;20201;-62
2023/12/27 01:33:12;;;;;;;5.03;2.97;;;11.20;99.90;;;;;;5051828;28;20696;-63
2023/12/27 01:35:40;;;;;;;4.50;2.83;;;11.20;99.90;;;;;;5051798;28;20205;-62
2023/12/27 01:38:06;;;;;;;4.60;2.23;;;11.10;99.90;;;;;;5051441;28;20232;-63
2023/12/27 01:40:34;;;;;;;4.47;3.13;;;11.00;99.90;;;;;;5051637;28;20597;-63
2023/12/27 01:43:01;;;;;;;4.30;2.97;;;11.00;99.90;;;;;;5051599;28;20267;-63
2023/12/27 01:45:27;;;;;;;4.47;2.50;;;11.00;99.90;;;;;;5051579;28;20225;-62
2023/12/27 01:47:56;;;;;;;5.70;2.20;;;11.00;99.90;;;;;;5051558;28;20287;-62
2023/12/27 01:50:23;;;;;;;5.73;2.40;;;11.00;99.90;;;;;;5051771;28;20685;-63
2023/12/27 01:52:50;;;;;;;3.77;2.40;;;11.00;99.90;;;;;;5050816;28;20212;-62
2023/12/27 01:55:17;;;;;;;3.50;2.63;;;11.00;99.90;;;;;;5051118;28;20201;-65
2023/12/27 01:57:44;;;;;;;15.37;10.23;;;11.00;99.90;;;;;;5051415;28;20259;-63
2023/12/27 02:00:12;;;;;;;9.80;7.07;;;11.00;99.90;;;;;;5051481;28;20630;-63
2023/12/27 02:02:38;;;;;;;7.07;3.60;;;11.00;99.90;;;;;;5051184;28;20674;-63
2023/12/27 02:05:07;;;;;;;4.40;2.80;;;11.00;99.90;;;;;;5051398;28;20202;-64
2023/12/27 02:07:36;;;;;;;4.60;2.40;;;11.00;99.90;;;;;;5051531;28;20698;-63
2023/12/27 02:10:04;;;;;;;2.90;2.00;;;11.00;99.90;;;;;;5051379;28;20631;-63
2023/12/27 02:12:31;;;;;;;4.70;2.70;;;11.10;99.90;;;;;;5051053;28;20628;-63
2023/12/27 02:14:58;;;;;;;9.97;4.77;;;11.00;99.90;;;;;;5051263;28;20627;-63
2023/12/27 02:17:27;;;;;;;13.23;6.80;;;11.10;99.90;;;;;;5051478;28;20353;-65
2023/12/27 02:19:54;;;;;;;8.07;5.10;;;11.10;99.90;;;;;;5051140;28;20690;-63
2023/12/27 02:22:24;;;;;;;4.10;1.83;;;11.00;99.90;;;;;;5051084;28;20217;-64
2023/12/27 02:24:53;;;;;;;2.43;1.90;;;10.90;99.90;;;;;;5051033;28;20674;-63
2023/12/27 02:27:20;;;;;;;2.97;2.00;;;10.90;99.90;;;;;;5051213;28;20218;-63
2023/12/27 02:29:47;;;;;;;2.83;2.03;;;10.90;99.90;;;;;;5051271;28;20210;-62
2023/12/27 02:32:14;;;;;;;1.80;1.47;;;10.90;99.90;;;;;;5050975;28;20213;-63
2023/12/27 02:34:41;;;;;;;2.70;1.57;;;10.70;99.90;;;;;;5050995;28;20220;-62
2023/12/27 02:37:07;;;;;;;4.37;1.70;;;10.60;99.90;;;;;;5051053;28;20197;-64
2023/12/27 02:39:34;;;;;;;3.90;2.03;;;10.50;99.90;;;;;;5050902;28;20241;-63
2023/12/27 02:42:02;;;;;;;3.07;1.73;;;10.50;99.90;;;;;;5051099;28;20210;-62
2023/12/27 02:44:29;;;;;;;2.57;1.67;;;10.40;99.90;;;;;;5051125;28;20206;-65
2023/12/27 02:46:56;;;;;;;3.77;1.83;;;10.30;99.90;;;;;;5051318;28;20217;-63
2023/12/27 02:49:23;;;;;;;2.67;1.50;;;10.40;99.90;;;;;;5051105;28;20217;-62
2023/12/27 02:51:50;;;;;;;4.53;1.80;;;10.30;99.90;;;;;;5050911;28;20225;-63
2023/12/27 02:54:16;;;;;;;2.97;1.83;;;10.40;99.90;;;;;;5050693;28;20208;-62
2023/12/27 02:56:43;;;;;;;3.37;2.00;;;10.40;99.90;;;;;;5051110;28;20198;-63
2023/12/27 02:59:11;;;;;;;3.07;1.90;;;10.40;99.90;;;;;;5050515;28;20224;-63
2023/12/27 03:01:38;;;;;;;3.23;1.90;;;10.40;99.90;;;;;;5050557;28;20217;-63
2023/12/27 03:04:04;;;;;;;4.37;2.10;;;10.30;99.90;;;;;;5050561;28;20202;-63
2023/12/27 03:06:31;;;;;;;2.53;1.87;;;10.40;99.90;;;;;;5054133;28;20222;-63
2023/12/27 03:08:58;;;;;;;3.80;2.10;;;10.40;99.90;;;;;;5054042;28;20291;-63
2023/12/27 03:11:24;;;;;;;2.03;1.70;;;10.40;99.90;;;;;;5054477;28;20239;-63
2023/12/27 03:13:51;;;;;;;3.87;2.07;;;10.50;99.90;;;;;;5054776;28;20668;-63
2023/12/27 03:16:20;;;;;;;2.80;1.80;;;10.50;99.90;;;;;;5054642;28;20233;-63
2023/12/27 03:18:47;;;;;;;3.90;1.73;;;10.40;99.90;;;;;;5054382;28;20225;-64
2023/12/27 03:21:14;;;;;;;2.50;1.80;;;10.40;99.90;;;;;;5054558;28;20227;-63
2023/12/27 03:23:41;;;;;;;3.47;1.80;;;10.30;99.90;;;;;;5054400;28;20202;-63
2023/12/27 03:26:07;;;;;;;2.87;1.87;;;10.10;99.90;;;;;;5054123;28;20226;-63
2023/12/27 03:28:35;;;;;;;2.87;1.90;;;10.00;99.90;;;;;;5054335;28;20229;-63
2023/12/27 03:31:02;;;;;;;6.03;3.80;;;9.90;99.90;;;;;;5054191;28;20738;-62
2023/12/27 03:33:30;;;;;;;7.63;3.43;;;9.90;99.90;;;;;;5054288;28;20221;-63
2023/12/27 03:35:56;;;;;;;5.27;2.60;;;9.90;99.90;;;;;;5054143;28;20201;-63
2023/12/27 03:38:23;;;;;;;4.50;2.30;;;9.80;99.90;;;;;;5053957;28;20703;-63
2023/12/27 03:40:50;;;;;;;4.23;2.20;;;9.80;99.90;;;;;;5053677;28;20220;-63
2023/12/27 03:43:17;;;;;;;2.50;1.90;;;9.80;99.90;;;;;;5053737;28;20206;-63
2023/12/27 03:45:45;;;;;;;3.60;2.10;;;9.80;99.90;;;;;;5053603;28;20293;-62
2023/12/27 03:48:12;;;;;;;2.30;1.73;;;9.80;99.90;;;;;;5037181;28;20237;-62
2023/12/27 03:50:40;;;;;;;2.77;2.03;;;9.30;99.90;;;;;;5053362;28;20753;-63
2023/12/27 03:53:07;;;;;;;4.53;2.20;;;9.80;99.90;;;;;;5053263;28;20210;-62
2023/12/27 03:55:33;;;;;;;3.73;2.13;;;9.70;99.90;;;;;;5053369;28;20263;-62
2023/12/27 03:58:00;;;;;;;3.87;2.30;;;9.70;99.90;;;;;;5053513;28;20226;-62
2023/12/27 04:00:28;;;;;;;5.00;2.10;;;9.60;99.90;;;;;;5053489;28;20247;-62
2023/12/27 04:02:54;;;;;;;4.50;2.27;;;9.60;99.90;;;;;;5053097;28;20217;-63
2023/12/27 04:05:21;;;;;;;4.57;2.13;;;9.60;99.90;;;;;;5053445;28;20220;-63
2023/12/27 04:07:49;;;;;;;5.37;2.40;;;9.60;99.90;;;;;;5053008;28;20726;-62
2023/12/27 04:10:16;;;;;;;3.70;2.10;;;9.60;99.90;;;;;;5053291;28;20205;-62
2023/12/27 04:12:43;;;;;;;4.17;2.17;;;9.60;99.90;;;;;;5053128;28;20252;-62
2023/12/27 04:15:10;;;;;;;4.67;2.00;;;9.60;99.90;;;;;;5052968;28;20645;-63
2023/12/27 04:17:36;;;;;;;3.00;1.90;;;9.70;99.90;;;;;;5077133;22;20232;-56
2023/12/27 04:20:04;;;;;;;5.40;2.40;;;9.70;99.90;;;;;;5042858;28;20872;-56
2023/12/27 04:22:30;;;;;;;4.10;1.93;;;9.80;99.90;;;;;;5044684;28;20206;-57
2023/12/27 04:24:58;;;;;;;5.07;2.20;;;9.80;99.90;;;;;;5036368;28;20214;-56
2023/12/27 04:27:25;;;;;;;4.03;2.53;;;9.80;99.90;;;;;;5044435;28;20291;-56
2023/12/27 04:29:52;;;;;;;3.47;2.10;;;9.80;99.90;;;;;;5052586;28;20639;-58
2023/12/27 04:32:18;;;;;;;3.50;2.07;;;9.80;99.90;;;;;;5052377;28;20205;-56
2023/12/27 04:34:45;;;;;;;3.17;2.03;;;9.90;99.90;;;;;;5052481;28;20205;-56
2023/12/27 04:37:12;;;;;;;4.57;2.30;;;10.00;99.90;;;;;;5052429;28;20289;-58
2023/12/27 04:39:38;;;;;;;3.50;2.20;;;10.00;99.90;;;;;;5052465;28;20264;-56
2023/12/27 04:42:07;;;;;;;2.83;2.27;;;10.10;99.90;;;;;;5052060;28;20213;-57
2023/12/27 04:44:34;;;;;;;3.43;2.30;;;10.10;99.90;;;;;;5052376;28;20482;-56
2023/12/27 04:47:01;;;;;;;3.70;2.60;;;10.00;99.90;;;;;;5052266;28;20279;-56
2023/12/27 04:49:28;;;;;;;3.03;2.37;;;10.00;99.90;;;;;;5052377;28;20229;-56
2023/12/27 04:51:54;;;;;;;4.87;2.40;;;9.90;99.90;;;;;;5051954;28;20270;-57
2023/12/27 04:54:21;;;;;;;5.30;2.37;;;9.90;99.90;;;;;;5052128;28;20197;-57
2023/12/27 04:56:48;;;;;;;2.43;1.80;;;9.90;99.90;;;;;;5052151;28;20213;-56
2023/12/27 04:59:15;;;;;;;3.83;2.30;;;9.90;99.90;;;;;;5035831;28;20308;-57
2023/12/27 05:01:42;;;;;;;3.40;2.33;;;9.90;99.90;;;;;;5051911;28;20209;-57
2023/12/27 05:04:09;;;;;;;4.50;1.70;;;9.90;99.90;;;;;;5051701;28;20209;-56
2023/12/27 05:06:35;;;;;;;3.93;2.20;;;9.90;99.90;;;;;;5051839;28;20226;-56
2023/12/27 05:09:04;;;;;;;3.67;2.07;;;10.00;99.90;;;;;;5051828;28;20232;-58
2023/12/27 05:11:31;;;;;;;2.40;1.83;;;10.00;99.90;;;;;;5051533;28;20205;-57
2023/12/27 05:13:57;;;;;;;4.30;2.10;;;10.00;99.90;;;;;;5051761;28;20244;-56
2023/12/27 05:16:25;;;;;;;3.23;2.20;;;10.10;99.90;;;;;;5051672;28;20205;-57
2023/12/27 05:18:52;;;;;;;3.10;2.13;;;10.00;99.90;;;;;;5051676;28;20233;-56
2023/12/27 05:21:19;;;;;;;2.90;2.07;;;10.00;99.90;;;;;;5051363;28;20205;-57
2023/12/27 05:23:46;;;;;;;5.87;2.10;;;9.90;99.90;;;;;;5051618;28;20210;-56
2023/12/27 05:26:13;;;;;;;2.97;2.27;;;9.80;99.90;;;;;;5051362;28;20769;-56
2023/12/27 05:28:40;;;;;;;3.87;2.10;;;9.70;99.90;;;;;;5051789;28;20254;-56
2023/12/27 05:31:07;;;;;;;2.97;2.30;;;9.60;99.90;;;;;;5051436;28;20293;-58
2023/12/27 05:33:35;;;;;;;3.30;2.20;;;9.50;99.90;;;;;;5051434;28;20213;-57
2023/12/27 05:36:01;;;;;;;4.40;2.30;;;9.30;99.90;;;;;;5051298;28;20606;-56
2023/12/27 05:38:28;;;;;;;5.20;2.27;;;9.20;99.90;;;;;;5051083;28;20694;-56
2023/12/27 05:40:55;;;;;;;4.50;2.60;;;9.00;99.90;;;;;;5050997;28;20735;-56
2023/12/27 05:43:21;;;;;;;3.77;2.30;;;8.90;99.90;;;;;;5051256;28;20201;-56
2023/12/27 05:45:48;;;;;;;3.23;2.10;;;8.80;99.90;;;;;;5051152;28;20209;-56
2023/12/27 05:48:15;;;;;;;6.60;2.37;;;8.80;99.90;;;;;;5034676;28;20239;-57
2023/12/27 05:50:43;;;;;;;5.17;2.20;;;8.70;99.90;;;;;;5051047;28;20277;-56
2023/12/27 05:53:10;;;;;;;2.17;1.97;;;8.70;99.90;;;;;;5050758;28;20312;-56
2023/12/27 05:55:37;;;;;;;2.57;1.87;;;8.60;99.90;;;;;;5051212;28;20211;-57
2023/12/27 05:58:04;;;;;;;2.67;2.23;;;8.60;99.90;;;;;;5051004;28;20225;-57
2023/12/27 06:00:31;;;;;;;3.17;1.90;;;8.60;99.90;;;;;;5050813;28;20292;-56
2023/12/27 06:02:57;;;;;;;2.30;2.07;;;8.50;99.90;;;;;;5050751;28;20206;-57
2023/12/27 06:05:24;;;;;;;3.10;2.33;;;8.50;99.90;;;;;;5050873;28;20291;-56
2023/12/27 06:07:52;;;;;;;5.67;2.53;;;8.40;99.90;;;;;;5050881;28;20643;-56
2023/12/27 06:10:19;;;;;;;3.93;2.30;;;8.30;99.90;;;;;;5050970;28;20252;-55
2023/12/27 06:12:47;;;;;;;6.10;2.23;;;8.20;99.90;;;;;;5050808;28;20236;-56
2023/12/27 06:15:14;;;;;;;6.97;2.13;;;8.00;99.90;;;;;;5050544;28;20675;-57
2023/12/27 06:17:42;;;;;;;3.00;2.10;;;7.90;99.90;;;;;;5050752;28;20206;-56
2023/12/27 06:20:09;;;;;;;4.30;2.37;;;7.90;99.90;;;;;;5050701;28;20263;-57
2023/12/27 06:22:36;;;;;;;4.83;2.60;;;7.90;99.90;;;;;;5050858;28;20220;-56
2023/12/27 06:25:04;;;;;;;3.87;2.60;;;7.80;99.90;;;;;;5050595;28;20675;-56
2023/12/27 06:27:31;;;;;;;5.40;3.20;;;7.80;99.90;;;;;;5050902;28;20217;-56
2023/12/27 06:29:58;;;;;;;5.73;2.60;;;7.80;99.90;;;;;;5050661;28;20209;-56
2023/12/27 06:32:25;;;;;;;4.30;2.57;;;7.90;99.90;;;;;;5050379;28;20210;-56
2023/12/27 06:34:51;;;;;;;6.63;2.50;;;7.80;99.90;;;;;;5050195;28;20205;-58
2023/12/27 06:37:18;;;;;;;3.63;2.20;;;7.90;99.90;;;;;;5050684;28;20202;-57
2023/12/27 06:39:45;;;;;;;5.67;2.60;;;7.90;99.90;;;;;;5051762;28;20228;-56
2023/12/27 06:42:13;;;;;;;4.30;2.37;;;7.90;99.90;;;;;;5054288;28;20254;-56
2023/12/27 06:44:39;;;;;;;3.23;2.50;;;7.90;99.90;;;;;;5054703;28;20255;-57
2023/12/27 06:47:06;;;;;;;4.57;2.80;;;7.90;99.90;;;;;;5054473;28;20221;-56
2023/12/27 06:49:34;;;;;;;4.97;2.50;;;8.00;99.90;;;;;;5054316;28;20230;-57
2023/12/27 06:52:00;;;;;;;3.40;2.47;;;8.10;99.90;;;;;;5054244;28;20210;-57
2023/12/27 06:54:27;;;;;;;4.97;2.30;;;8.20;99.90;;;;;;5054488;28;20217;-56
2023/12/27 06:56:54;;;;;;;5.10;2.47;;;8.20;99.90;;;;;;5054292;28;20209;-57
2023/12/27 06:59:22;;;;;;;3.47;2.50;;;8.30;99.90;;;;;;5054214;28;20226;-57
2023/12/27 07:01:48;;;;;;;3.97;2.80;;;8.30;99.90;;;;;;5054073;28;20214;-56
2023/12/27 07:04:15;;;;;;;4.63;2.77;;;8.20;99.90;;;;;;5054261;28;20201;-56
2023/12/27 07:06:42;;;;;;;5.67;2.83;;;8.20;99.90;;;;;;5054332;28;20252;-56
2023/12/27 07:09:09;;;;;;;6.20;3.50;;;8.30;99.90;;;;;;5054009;28;20291;-56
2023/12/27 07:11:36;;;;;;;6.53;3.20;;;8.20;99.90;;;;;;5053910;28;20641;-56
2023/12/27 07:14:03;;;;;;;8.47;3.60;;;8.20;99.90;;;;;;5053943;28;20216;-58
2023/12/27 07:16:31;;;;;;;4.50;2.60;;;8.20;99.90;;;;;;5053778;28;20580;-57
2023/12/27 07:18:58;;;;;;;4.67;3.33;;;8.20;99.90;;;;;;5053502;28;20225;-57
2023/12/27 07:21:24;;;;;;;5.17;3.00;;;8.30;99.90;;;;;;5053868;28;20238;-56
2023/12/27 07:23:51;;;;;;;4.13;3.20;;;8.30;99.90;;;;;;5053973;28;20263;-58
2023/12/27 07:26:18;;;;;;;5.37;3.00;;;8.30;99.90;;;;;;5053521;28;20236;-56
2023/12/27 07:28:45;;;;;;;4.67;2.90;;;8.40;99.90;;;;;;5053667;28;20710;-57
2023/12/27 07:31:12;;;;;;;4.93;3.17;;;8.40;99.90;;;;;;5053355;28;20205;-57
2023/12/27 07:33:40;;;;;;;4.60;3.10;;;8.40;99.90;;;;;;5053663;28;20285;-57
2023/12/27 07:36:08;;;;;;;5.07;3.13;;;8.40;99.90;;;;;;5053266;28;20209;-55
2023/12/27 07:38:35;;;;;;;3.23;2.70;;;8.50;99.90;;;;;;5053483;28;20229;-56
2023/12/27 07:41:01;;;;;;;4.33;2.73;;;8.40;99.90;;;;;;5053386;28;20206;-56
2023/12/27 07:43:28;;;;;;;5.13;2.93;;;8.50;99.90;;;;;;5053440;28;20208;-56
2023/12/27 07:45:55;;;;;;;4.10;2.90;;;8.50;99.90;;;;;;5053248;28;20601;-55
2023/12/27 07:48:22;;;;;;;8.60;3.67;;;8.50;99.90;;;;;;5053477;28;20224;-56
2023/12/27 07:50:51;;;;;;;3.20;2.80;;;8.50;99.90;;;;;;5052490;28;20217;-55
2023/12/27 07:53:17;;;;;;;9.93;5.07;;;8.40;99.90;;;;;;5052615;28;20226;-59
2023/12/27 07:55:44;;;;;;;3.73;3.20;;;8.50;99.90;;;;;;5053015;28;20206;-56
2023/12/27 07:58:11;;;;;;;4.83;3.60;;;8.50;99.90;;;;;;5052713;28;20243;-56
2023/12/27 08:00:37;;;;;;;6.20;3.50;;;8.40;99.90;;;;;;5052792;28;20214;-57
2023/12/27 08:03:08;;;;;;;6.37;3.50;;;8.50;99.90;;;;;;5053608;28;20212;-56
2023/12/27 08:05:35;;;;;;;4.43;3.97;;;8.50;99.90;;;;;;5053361;28;20206;-56
2023/12/27 08:08:03;;;;;;;4.93;3.67;;;8.50;99.90;;;;;;5052796;28;20233;-56
2023/12/27 08:10:30;;;;;;;4.83;3.40;;;8.60;99.90;;;;;;5053017;28;20333;-57
2023/12/27 08:12:57;;;;;;;5.90;4.40;;;8.70;99.90;;;;;;5052771;28;20216;-55
2023/12/27 08:15:24;;;;;;;9.13;5.83;;;8.80;99.90;;;;;;5053002;28;20202;-57
2023/12/27 08:17:51;;;;;;;7.47;5.30;;;8.90;99.90;;;;;;5052687;28;20205;-56
2023/12/27 08:20:17;;;;;;;6.20;3.40;;;9.10;99.90;;;;;;5052832;28;20259;-56
2023/12/27 08:22:44;;;;;;;4.43;3.30;;;9.20;99.90;;;;;;5052522;28;20214;-57
2023/12/27 08:25:15;;;;;;;5.03;2.80;;;9.30;99.90;;;;;;5052395;28;20300;-56
2023/12/27 08:27:42;;;;;;;4.33;3.20;;;9.40;99.90;;;;;;5052678;28;20400;-56
2023/12/27 08:30:09;;;;;;;4.57;3.10;;;9.50;99.90;;;;;;5052259;28;20202;-57
2023/12/27 08:32:36;;;;;;;4.47;3.23;;;9.50;99.90;;;;;;5052372;28;20210;-57
2023/12/27 08:35:03;;;;;;;4.60;3.00;;;9.50;99.90;;;;;;5052066;28;20205;-56
2023/12/27 08:37:30;;;;;;;5.67;3.43;;;9.50;99.90;;;;;;5052427;28;20214;-57
2023/12/27 08:39:56;;;;;;;4.10;3.00;;;9.40;99.90;;;;;;5052015;28;20237;-58
2023/12/27 08:42:24;;;;;;;4.93;3.20;;;9.50;99.90;;;;;;5052539;28;20201;-56
2023/12/27 08:44:51;;;;;;;7.17;3.17;;;9.50;99.90;;;;;;5052289;28;20256;-57
2023/12/27 08:47:18;;;;;;;7.47;3.57;;;9.70;99.90;;;;;;5051910;28;20670;-56
2023/12/27 08:49:44;;;;;;;4.40;3.13;;;9.70;99.90;;;;;;5052373;28;20272;-58
2023/12/27 08:52:11;;;;;;;4.87;2.50;;;9.80;99.90;;;;;;5051632;28;20206;-57
2023/12/27 08:54:38;;;;;;;4.40;2.70;;;9.80;99.90;;;;;;5051834;28;20216;-56
2023/12/27 08:57:05;;;;;;;3.00;2.40;;;9.90;99.90;;;;;;5051923;28;20212;-57
2023/12/27 08:59:33;;;;;;;4.03;2.70;;;10.00;99.90;;;;;;5052170;28;20279;-55
2023/12/27 09:01:59;;;;;;;6.17;2.93;;;10.00;99.90;;;;;;5051845;28;20697;-56
2023/12/27 09:04:27;;;;;;;4.87;2.53;;;9.90;99.90;;;;;;5052323;28;20201;-56
2023/12/27 09:06:54;;;;;;;4.10;2.77;;;9.90;99.90;;;;;;5052029;28;20649;-56
2023/12/27 09:09:21;;;;;;;5.07;2.60;;;9.80;99.90;;;;;;5035551;28;20274;-58
2023/12/27 09:11:48;;;;;;;3.33;2.30;;;9.80;99.90;;;;;;5051699;28;20626;-56
2023/12/27 09:14:14;;;;;;;2.80;2.03;;;9.80;99.90;;;;;;5051658;28;20202;-56
2023/12/27 09:16:42;;;;;;;3.37;2.50;;;9.80;99.90;;;;;;5051346;28;20675;-57
2023/12/27 09:19:09;;;;;;;5.97;2.57;;;9.80;99.90;;;;;;5051162;28;20225;-57
2023/12/27 09:21:43;;;;;;;3.23;2.07;;;9.90;99.90;;;;;;5051723;28;20205;-56
2023/12/27 09:24:10;;;;;;;6.00;2.67;;;9.80;99.90;;;;;;5051712;28;20291;-56
2023/12/27 09:26:37;;;;;;;4.87;2.30;;;9.80;99.90;;;;;;5049506;28;20217;-58
2023/12/27 09:29:04;;;;;;;8.90;2.57;;;9.80;99.90;;;;;;5024780;28;20230;-58
2023/12/27 09:31:30;;;;;;;4.00;2.43;;;9.80;99.90;;;;;;5030978;28;20554;-57
2023/12/27 09:33:59;;;;;;;4.80;2.50;;;9.80;99.90;;;;;;5030949;28;20213;-54
2023/12/27 09:36:26;;;;;;;5.53;2.70;;;9.80;99.90;;;;;;5031705;28;20229;-54
2023/12/27 09:38:53;;;;;;;4.63;2.90;;;9.80;99.90;;;;;;5030729;28;20232;-53
2023/12/27 09:41:20;;;;;;;5.17;2.97;;;10.00;99.90;;;;;;5030899;28;20660;-54
2023/12/27 09:43:48;;;;;;;3.90;2.43;;;10.20;99.90;;;;;;5031382;28;20213;-53
2023/12/27 09:46:15;;;;;;;3.77;2.20;;;10.30;99.90;;;;;;5031069;28;20294;-54
2023/12/27 09:48:43;;;;;;;3.53;2.30;;;10.40;99.90;;;;;;5030534;28;20698;-56
2023/12/27 09:51:12;;;;;;;4.70;2.40;;;10.50;99.90;;;;;;5031119;28;20218;-54
2023/12/27 09:53:40;;;;;;;7.27;3.17;;;10.50;99.90;;;;;;5030946;28;20667;-54
2023/12/27 09:56:08;;;;;;;5.67;2.20;;;10.70;99.90;;;;;;5031036;28;20237;-53
2023/12/27 09:58:37;;;;;;;4.23;2.00;;;10.90;99.90;;;;;;5030772;28;20230;-54
2023/12/27 10:01:06;;;;;;;3.93;2.00;;;11.00;99.90;;;;;;5030134;28;20214;-54
2023/12/27 10:03:35;;;;;;;4.67;1.50;;;11.10;99.90;;;;;;5031194;28;20214;-54
2023/12/27 10:06:12;;;;;;;3.40;1.50;;;11.10;99.90;;;;;;5030809;28;20230;-55
2023/12/27 10:08:40;;;;;;;3.47;1.73;;;11.10;99.90;;;;;;5030764;28;20337;-54
2023/12/27 10:11:09;;;;;;;4.40;1.43;;;11.20;99.90;;;;;;5030195;28;20214;-53
2023/12/27 10:13:38;;;;;;;4.17;1.60;;;11.40;99.90;;;;;;5030383;28;20214;-54
2023/12/27 10:16:06;;;;;;;4.30;1.67;;;11.30;99.90;;;;;;5030472;28;20308;-54
2023/12/27 10:18:32;;;;;;;2.40;1.80;;;11.30;99.90;;;;;;5031867;28;20317;-55
2023/12/27 10:21:00;;;;;;;2.23;1.60;;;11.40;99.90;;;;;;5030579;28;20213;-55
2023/12/27 10:23:27;;;;;;;3.57;1.67;;;11.50;99.90;;;;;;5030514;28;20236;-56
2023/12/27 10:25:55;;;;;;;3.93;1.80;;;11.60;99.90;;;;;;5030335;28;20206;-55
2023/12/27 10:28:23;;;;;;;3.90;1.50;;;11.70;99.90;;;;;;5038371;28;20687;-55
2023/12/27 10:30:51;;;;;;;2.90;1.33;;;11.90;99.90;;;;;;5030148;28;20221;-55
2023/12/27 10:33:19;;;;;;;4.53;1.93;;;12.10;99.90;;;;;;5029897;28;20210;-55
2023/12/27 10:35:46;;;;;;;4.83;1.80;;;12.30;99.90;;;;;;5030635;28;20314;-56
2023/12/27 10:38:13;;;;;;;5.93;1.80;;;12.50;99.90;;;;;;5030228;28;20288;-55
2023/12/27 10:40:40;;;;;;;2.43;1.70;;;12.60;99.90;;;;;;5030309;28;20276;-56
2023/12/27 10:43:08;;;;;;;4.63;2.00;;;12.50;99.90;;;;;;5030656;28;20287;-54
2023/12/27 10:45:36;;;;;;;5.07;2.10;;;12.40;99.90;;;;;;5030826;28;20246;-55
2023/12/27 10:48:05;;;;;;;5.30;2.10;;;12.30;99.90;;;;;;5030241;28;20612;-55
2023/12/27 10:50:33;;;;;;;3.33;2.10;;;12.30;99.90;;;;;;5030558;28;20298;-55
2023/12/27 10:53:06;;;;;;;3.10;1.70;;;12.30;99.90;;;;;;5030667;28;20210;-55
2023/12/27 10:55:34;;;;;;;3.40;1.67;;;12.60;99.90;;;;;;5030383;28;20394;-55
2023/12/27 10:58:03;;;;;;;3.83;1.77;;;13.00;99.90;;;;;;5029878;28;20249;-58
2023/12/27 11:00:31;;;;;;;3.30;1.57;;;13.30;99.90;;;;;;5029888;28;20203;-60
2023/12/27 11:02:58;;;;;;;2.17;1.43;;;13.40;99.90;;;;;;5029987;28;20218;-55
2023/12/27 11:05:27;;;;;;;3.87;1.70;;;13.60;99.90;;;;;;5030002;28;20563;-55
2023/12/27 11:07:55;;;;;;;3.47;1.87;;;13.80;99.90;;;;;;5029868;28;20317;-55
2023/12/27 11:10:23;;;;;;;3.83;1.90;;;14.00;99.90;;;;;;5030000;28;20654;-56
2023/12/27 11:12:50;;;;;;;2.83;1.67;;;14.20;99.90;;;;;;5030239;28;20218;-56
2023/12/27 11:15:18;;;;;;;3.50;1.57;;;14.30;99.90;;;;;;5030165;28;20280;-56
2023/12/27 11:17:49;;;;;;;2.37;1.70;;;14.30;99.90;;;;;;5036181;28;20399;-56
2023/12/27 11:20:19;;;;;;;3.50;1.57;;;14.20;99.90;;;;;;5031233;28;20217;-56
2023/12/27 11:22:46;;;;;;;4.13;1.50;;;14.20;99.90;;;;;;5030134;28;20215;-56
2023/12/27 11:25:13;;;;;;;3.93;1.53;;;14.20;99.90;;;;;;5029996;28;20578;-56
2023/12/27 11:27:41;;;;;;;3.33;1.27;;;14.40;99.90;;;;;;5033927;28;20221;-56
2023/12/27 11:30:11;;;;;;;3.47;1.30;;;14.60;99.90;;;;;;5033700;28;20229;-59
2023/12/27 11:32:40;;;;;;;2.40;1.50;;;14.70;99.90;;;;;;5038086;28;20312;-59
2023/12/27 11:35:10;;;;;;;2.67;1.20;;;14.80;99.90;;;;;;5037084;28;20206;-57
2023/12/27 11:37:40;;;;;;;4.90;3.37;;;14.90;99.90;;;;;;5053455;28;20237;-59
2023/12/27 11:40:10;;;;;;;3.97;1.30;;;15.10;99.90;;;;;;5053433;28;20206;-59
2023/12/27 11:42:38;;;;;;;4.13;1.50;;;15.20;99.90;;;;;;5053420;28;20206;-58
2023/12/27 11:45:05;;;;;;;2.80;1.17;;;15.50;99.90;;;;;;5053049;28;20632;-59
2023/12/27 11:47:32;;;;;;;2.80;1.60;;;15.70;99.90;;;;;;5053146;28;20201;-60
2023/12/27 11:50:20;;;;;;;2.70;1.60;;;15.80;99.90;;;;;;5053511;28;20233;-61
2023/12/27 11:52:51;;;;;;;3.93;1.60;;;15.90;99.90;;;;;;5042948;28;20205;-60
2023/12/27 11:55:20;;;;;;;3.15;1.70;;;16.00;99.90;;;;;;5053288;28;20662;-57
2023/12/27 11:57:56;;;;;;;2.67;1.42;;;16.00;99.90;;;;;;5053036;28;20491;-59
2023/12/27 12:00:25;;;;;;;1.40;1.10;;;16.10;99.90;;;;;;5053063;28;20201;-59
2023/12/27 12:02:57;;;;;;;3.75;1.35;;;16.20;99.90;;;;;;5053135;28;20255;-61
2023/12/27 12:05:44;;;;;;;2.95;1.48;;;16.30;99.90;;;;;;5053182;28;20259;-62
2023/12/27 12:08:17;;;;;;;2.58;1.20;;;16.30;99.90;;;;;;5052516;28;20599;-61
2023/12/27 12:10:44;;;;;;;1.98;1.20;;;16.30;99.90;;;;;;5052856;28;20213;-61
2023/12/27 12:13:11;;;;;;;3.08;1.80;;;16.30;99.90;;;;;;5052674;28;20210;-61
2023/12/27 12:15:38;;;;;;;5.88;2.45;;;16.20;99.90;;;;;;5052309;28;20217;-61
2023/12/27 12:18:05;;;;;;;3.58;1.50;;;16.20;99.90;;;;;;5052736;28;20279;-61
2023/12/27 12:20:34;;;;;;;3.80;1.70;;;16.20;99.90;;;;;;5053056;28;20641;-62
2023/12/27 12:23:03;;;;;;;2.42;1.23;;;16.20;99.90;;;;;;5053509;28;20242;-64
2023/12/27 12:25:29;;;;;;;2.42;1.50;;;16.20;99.90;;;;;;5037589;28;20667;-60
2023/12/27 12:27:56;;;;;;;2.25;1.38;;;16.20;99.90;;;;;;5053691;28;20226;-63
2023/12/27 12:30:23;;;;;;;3.80;1.67;;;16.30;99.90;;;;;;5053977;28;20245;-59
2023/12/27 12:32:50;;;;;;;4.80;1.98;;;16.40;99.90;;;;;;5054217;28;20256;-61
2023/12/27 12:35:17;;;;;;;2.67;1.70;;;16.30;99.90;;;;;;5052892;28;20672;-63
2023/12/27 12:37:45;;;;;;;6.03;1.95;;;16.30;99.90;;;;;;5052490;28;20682;-59
2023/12/27 12:40:14;;;;;;;3.22;1.50;;;16.30;99.90;;;;;;5052358;28;20296;-62
2023/12/27 12:42:41;;;;;;;3.00;1.85;;;16.40;99.90;;;;;;5052364;28;20663;-63
2023/12/27 12:45:09;;;;;;;3.38;1.83;;;16.40;99.90;;;;;;5052578;28;20233;-61
2023/12/27 12:47:35;;;;;;;3.30;2.05;;;16.30;99.90;;;;;;5052767;28;20205;-62
2023/12/27 12:50:02;;;;;;;3.97;1.80;;;16.30;99.90;;;;;;5052964;28;20624;-64